createdAt,value
2023-08-29T00:02:43.853Z,23.26
2023-08-29T00:05:31.485Z,23.26
2023-08-29T00:08:17.058Z,23.22
2023-08-29T00:11:06.634Z,23.22
2023-08-29T00:13:53.744Z,23.20
2023-08-29T00:16:39.035Z,23.19
2023-08-29T00:19:24.377Z,23.18
2023-08-29T00:22:09.636Z,23.17
2023-08-29T00:24:54.798Z,23.16
2023-08-29T00:27:40.280Z,23.15
2023-08-29T00:30:25.617Z,23.14
2023-08-29T00:33:11.016Z,23.14
2023-08-29T00:35:58.003Z,23.13
2023-08-29T00:38:43.299Z,23.12
2023-08-29T00:41:28.617Z,23.10
2023-08-29T00:44:14.002Z,23.10
2023-08-29T00:46:59.913Z,23.08
2023-08-29T00:49:46.847Z,23.07
2023-08-29T00:52:32.858Z,23.07
2023-08-29T00:55:18.381Z,23.07
2023-08-29T00:58:04.955Z,23.06
2023-08-29T01:00:50.657Z,23.05
2023-08-29T01:03:36.958Z,23.04
2023-08-29T01:06:22.459Z,23.04
2023-08-29T01:09:08.244Z,23.04
2023-08-29T01:12:03.759Z,23.03
2023-08-29T01:14:58.730Z,23.03
2023-08-29T01:17:53.075Z,23.02
2023-08-29T01:20:39.719Z,23.00
2023-08-29T01:23:31.064Z,23.02
2023-08-29T01:26:17.831Z,22.99
2023-08-29T01:29:05.045Z,22.98
2023-08-29T01:31:51.705Z,22.99
2023-08-29T01:34:37.419Z,22.98
2023-08-29T01:37:22.427Z,22.96
2023-08-29T01:40:08.672Z,22.97
2023-08-29T01:42:54.194Z,22.97
2023-08-29T01:45:39.752Z,22.96
2023-08-29T01:48:25.340Z,22.95
2023-08-29T01:51:12.127Z,22.95
2023-08-29T01:53:58.064Z,22.95
2023-08-29T01:56:44.448Z,22.94
2023-08-29T01:59:31.027Z,22.93
2023-08-29T02:02:16.661Z,22.91
2023-08-29T02:05:02.124Z,22.91
2023-08-29T02:07:47.496Z,22.92
2023-08-29T02:10:33.134Z,22.91
2023-08-29T02:13:18.409Z,22.90
2023-08-29T02:16:04.099Z,22.89
2023-08-29T02:18:49.974Z,22.88
2023-08-29T02:21:35.605Z,22.87
2023-08-29T02:24:21.100Z,22.87
2023-08-29T02:27:06.461Z,22.85
2023-08-29T02:29:51.848Z,22.86
2023-08-29T02:32:38.817Z,22.84
2023-08-29T02:35:24.029Z,22.84
2023-08-29T02:38:10.203Z,22.83
2023-08-29T02:40:55.839Z,22.84
2023-08-29T02:43:41.265Z,22.81
2023-08-29T02:46:26.740Z,22.82
2023-08-29T02:49:12.556Z,22.82
2023-08-29T02:51:58.080Z,22.83
2023-08-29T02:54:43.619Z,22.81
2023-08-29T02:57:29.145Z,22.81
2023-08-29T03:00:15.816Z,22.81
2023-08-29T03:03:01.417Z,22.78
2023-08-29T03:06:00.289Z,22.80
2023-08-29T03:08:46.086Z,22.79
2023-08-29T03:11:31.775Z,22.77
2023-08-29T03:14:17.682Z,22.76
2023-08-29T03:17:04.648Z,22.77
2023-08-29T03:19:50.696Z,22.76
2023-08-29T03:22:36.130Z,22.77
2023-08-29T03:25:22.912Z,22.77
2023-08-29T03:28:09.054Z,22.77
2023-08-29T03:30:54.515Z,22.78
2023-08-29T03:33:44.609Z,22.86
2023-08-29T03:36:30.388Z,22.87
2023-08-29T03:39:16.239Z,22.92
2023-08-29T03:42:01.969Z,22.95
2023-08-29T03:44:49.090Z,22.99
2023-08-29T03:47:37.451Z,23.03
2023-08-29T03:50:22.824Z,23.08
2023-08-29T03:53:08.907Z,23.10
2023-08-29T03:55:54.293Z,23.09
2023-08-29T03:58:39.735Z,23.10
2023-08-29T04:01:26.104Z,23.06
2023-08-29T04:04:11.739Z,23.05
2023-08-29T04:06:57.677Z,23.04
2023-08-29T04:09:43.602Z,23.04
2023-08-29T04:12:29.934Z,23.00
2023-08-29T04:15:16.094Z,22.97
2023-08-29T04:18:02.518Z,22.97
2023-08-29T04:20:48.455Z,22.96
2023-08-29T04:23:33.949Z,23.01
2023-08-29T04:26:19.364Z,23.00
2023-08-29T04:29:04.924Z,22.99
2023-08-29T04:31:50.347Z,22.99
2023-08-29T04:34:36.073Z,23.03
2023-08-29T04:37:22.044Z,23.00
2023-08-29T04:40:08.942Z,23.03
2023-08-29T04:42:54.643Z,23.04
2023-08-29T04:45:40.350Z,23.07
2023-08-29T04:48:26.174Z,23.07
2023-08-29T04:51:12.321Z,23.08
2023-08-29T04:53:59.047Z,23.07
2023-08-29T04:56:45.684Z,23.07
2023-08-29T04:59:31.555Z,23.06
2023-08-29T05:02:19.806Z,23.09
2023-08-29T05:05:07.266Z,23.10
2023-08-29T05:07:53.161Z,23.10
2023-08-29T05:10:42.601Z,23.08
2023-08-29T05:13:28.742Z,23.10
2023-08-29T05:16:14.218Z,23.13
2023-08-29T05:19:00.426Z,23.15
2023-08-29T05:21:46.139Z,23.13
2023-08-29T05:24:32.379Z,23.13
2023-08-29T05:27:17.987Z,23.14
2023-08-29T05:30:05.494Z,23.19
2023-08-29T05:32:51.085Z,23.21
2023-08-29T05:35:36.288Z,23.19
2023-08-29T05:38:26.544Z,23.19
2023-08-29T05:41:12.160Z,23.16
2023-08-29T05:43:57.486Z,23.14
2023-08-29T05:46:43.176Z,23.12
2023-08-29T05:49:28.359Z,23.12
2023-08-29T05:52:13.753Z,23.12
2023-08-29T05:54:59.347Z,23.11
2023-08-29T05:57:44.875Z,23.12
2023-08-29T06:00:31.084Z,23.10
2023-08-29T06:03:16.706Z,23.09
2023-08-29T06:06:04.484Z,23.08
2023-08-29T06:08:49.832Z,23.06
2023-08-29T06:11:35.908Z,23.07
2023-08-29T06:14:20.985Z,23.07
2023-08-29T06:17:06.503Z,23.05
2023-08-29T06:19:51.748Z,23.06
2023-08-29T06:22:37.346Z,23.06
2023-08-29T06:25:22.741Z,23.04
2023-08-29T06:28:08.458Z,23.04
2023-08-29T06:30:54.209Z,23.06
2023-08-29T06:33:40.803Z,23.06
2023-08-29T06:36:27.631Z,23.05
2023-08-29T06:39:12.733Z,23.03
2023-08-29T06:41:58.089Z,23.03
2023-08-29T06:44:43.657Z,23.01
2023-08-29T06:47:28.820Z,22.99
2023-08-29T06:50:14.415Z,22.97
2023-08-29T06:52:59.905Z,22.95
2023-08-29T06:55:47.964Z,22.92
2023-08-29T06:58:33.601Z,22.89
2023-08-29T07:01:18.954Z,22.87
2023-08-29T07:04:05.647Z,22.86
2023-08-29T07:06:51.155Z,22.83
2023-08-29T07:09:36.573Z,22.80
2023-08-29T07:12:21.964Z,22.80
2023-08-29T07:15:07.785Z,22.79
2023-08-29T07:17:55.002Z,22.77
2023-08-29T07:20:41.332Z,22.77
2023-08-29T07:23:27.361Z,22.76
2023-08-29T07:26:13.904Z,22.73
2023-08-29T07:28:59.531Z,22.73
2023-08-29T07:31:44.831Z,22.73
2023-08-29T07:34:30.192Z,22.71
2023-08-29T07:37:15.556Z,22.72
2023-08-29T07:40:00.944Z,22.75
2023-08-29T07:42:46.262Z,22.78
2023-08-29T07:45:32.758Z,22.77
2023-08-29T07:48:18.564Z,22.81
2023-08-29T07:51:04.973Z,22.86
2023-08-29T07:53:50.565Z,22.87
2023-08-29T07:56:36.004Z,22.91
2023-08-29T07:59:21.899Z,22.91
2023-08-29T08:02:08.199Z,22.91
2023-08-29T08:04:53.642Z,22.93
2023-08-29T08:07:40.147Z,22.95
2023-08-29T08:10:25.614Z,22.95
2023-08-29T08:13:11.007Z,22.98
2023-08-29T08:15:58.341Z,22.98
2023-08-29T08:18:45.077Z,23.00
2023-08-29T08:21:30.997Z,23.01
2023-08-29T08:24:17.390Z,23.05
2023-08-29T08:27:03.308Z,23.04
2023-08-29T08:29:49.028Z,23.04
2023-08-29T08:32:34.831Z,23.06
2023-08-29T08:35:20.342Z,23.08
2023-08-29T08:38:08.593Z,23.12
2023-08-29T08:40:58.165Z,23.12
2023-08-29T08:43:44.111Z,23.12
2023-08-29T08:46:29.710Z,23.12
2023-08-29T08:49:15.289Z,23.10
2023-08-29T08:52:01.833Z,23.09
2023-08-29T08:54:48.245Z,23.09
2023-08-29T08:57:33.853Z,23.09
2023-08-29T09:00:23.655Z,23.11
2023-08-29T09:03:09.690Z,23.09
2023-08-29T09:05:55.333Z,23.09
2023-08-29T09:08:41.005Z,23.12
2023-08-29T09:11:27.155Z,23.10
2023-08-29T09:14:13.943Z,23.14
2023-08-29T09:17:05.695Z,23.16
2023-08-29T09:19:51.214Z,23.18
2023-08-29T09:22:37.122Z,23.20
2023-08-29T09:25:26.128Z,23.21
2023-08-29T09:28:12.282Z,23.23
2023-08-29T09:31:12.462Z,23.23
2023-08-29T09:34:02.727Z,23.23
2023-08-29T09:36:50.612Z,23.24
2023-08-29T09:39:40.596Z,23.24
2023-08-29T09:42:30.818Z,23.26
2023-08-29T09:45:18.215Z,23.27
2023-08-29T09:48:11.184Z,23.27
2023-08-29T09:51:05.495Z,23.28
2023-08-29T09:54:01.586Z,23.30
2023-08-29T09:56:50.685Z,23.31
2023-08-29T09:59:44.079Z,23.31
2023-08-29T10:02:34.328Z,23.32
2023-08-29T10:05:29.896Z,23.33
2023-08-29T10:08:32.930Z,23.36
2023-08-29T10:11:23.040Z,23.37
2023-08-29T10:14:10.664Z,23.38
2023-08-29T10:16:56.661Z,23.36
2023-08-29T10:19:43.883Z,23.34
2023-08-29T10:22:31.208Z,23.34
2023-08-29T10:25:19.827Z,23.34
2023-08-29T10:28:12.701Z,23.36
2023-08-29T10:31:03.295Z,23.35
2023-08-29T10:33:49.304Z,23.36
2023-08-29T10:36:39.356Z,23.36
2023-08-29T10:39:28.483Z,23.38
2023-08-29T10:42:17.361Z,23.45
2023-08-29T10:45:02.570Z,23.51
2023-08-29T10:47:49.047Z,23.54
2023-08-29T10:50:38.275Z,23.54
2023-08-29T10:53:23.534Z,23.47
2023-08-29T10:56:09.258Z,23.47
2023-08-29T10:58:54.940Z,23.43
2023-08-29T11:01:41.628Z,23.49
2023-08-29T11:04:28.439Z,23.50
2023-08-29T11:07:27.419Z,23.50
2023-08-29T11:10:24.096Z,23.51
2023-08-29T11:13:12.001Z,23.53
2023-08-29T11:15:59.345Z,23.51
2023-08-29T11:18:45.296Z,23.52
2023-08-29T11:21:32.205Z,23.53
2023-08-29T11:24:18.519Z,23.52
2023-08-29T11:27:07.432Z,23.52
2023-08-29T11:30:05.805Z,23.51
2023-08-29T11:32:57.428Z,23.55
2023-08-29T11:35:46.377Z,23.54
2023-08-29T11:38:33.090Z,23.53
2023-08-29T11:41:39.156Z,23.53
2023-08-29T11:45:15.182Z,23.56
2023-08-29T11:47:34.990Z,23.60
2023-08-29T11:50:20.350Z,23.65
2023-08-29T11:53:06.262Z,23.64
2023-08-29T11:55:52.310Z,23.70
2023-08-29T11:58:39.125Z,23.70
2023-08-29T12:01:24.300Z,23.71
2023-08-29T12:04:09.895Z,23.72
2023-08-29T12:07:12.902Z,23.73
2023-08-29T12:10:07.402Z,23.73
2023-08-29T12:12:53.288Z,23.75
2023-08-29T12:18:28.249Z,23.69
2023-08-29T12:21:19.579Z,23.69
2023-08-29T12:24:12.060Z,23.69
2023-08-29T12:26:57.489Z,23.72
2023-08-29T12:29:42.756Z,23.72
2023-08-29T12:32:29.204Z,23.73
2023-08-29T12:35:16.996Z,23.74
2023-08-29T12:38:03.236Z,23.76
2023-08-29T12:40:48.774Z,23.74
2023-08-29T12:43:34.296Z,23.74
2023-08-29T12:46:19.658Z,23.79
2023-08-29T12:49:05.219Z,23.77
2023-08-29T12:51:51.703Z,23.80
2023-08-29T12:54:37.378Z,23.80
2023-08-29T12:57:22.975Z,23.81
2023-08-29T13:00:08.910Z,23.81
2023-08-29T13:02:54.861Z,23.80
2023-08-29T13:05:43.332Z,23.78
2023-08-29T13:08:29.431Z,23.79
2023-08-29T13:11:15.373Z,23.77
2023-08-29T13:14:00.947Z,23.78
2023-08-29T13:16:46.608Z,23.79
2023-08-29T13:19:35.248Z,23.80
2023-08-29T13:22:22.718Z,23.79
2023-08-29T13:25:10.413Z,23.77
2023-08-29T13:27:56.878Z,23.80
2023-08-29T13:30:42.592Z,23.80
2023-08-29T13:33:27.696Z,23.81
2023-08-29T13:36:16.326Z,23.79
2023-08-29T13:39:02.157Z,23.78
2023-08-29T13:41:47.359Z,23.80
2023-08-29T13:44:32.604Z,23.79
2023-08-29T13:47:18.268Z,23.80
2023-08-29T13:50:04.229Z,23.80
2023-08-29T13:52:50.391Z,23.77
2023-08-29T13:55:35.848Z,23.78
2023-08-29T13:58:21.249Z,23.81
2023-08-29T14:01:06.927Z,23.78
2023-08-29T14:06:38.461Z,23.76
2023-08-29T14:09:24.559Z,23.79
2023-08-29T14:12:10.379Z,23.76
2023-08-29T14:14:56.210Z,23.74
2023-08-29T14:17:41.518Z,23.76
2023-08-29T14:20:27.205Z,23.77
2023-08-29T14:23:12.396Z,23.77
2023-08-29T14:25:58.087Z,23.77
2023-08-29T14:28:43.769Z,23.78
2023-08-29T14:31:29.576Z,23.79
2023-08-29T14:34:16.005Z,23.78
2023-08-29T14:37:01.916Z,23.78
2023-08-29T14:39:47.826Z,23.80
2023-08-29T14:42:33.654Z,23.75
2023-08-29T14:45:20.287Z,23.76
2023-08-29T14:48:06.700Z,23.74
2023-08-29T14:50:52.544Z,23.76
2023-08-29T14:53:39.644Z,23.76
2023-08-29T14:56:25.413Z,23.75
2023-08-29T14:59:11.290Z,23.77
2023-08-29T15:01:57.016Z,23.76
2023-08-29T15:04:43.301Z,23.79
2023-08-29T15:07:28.807Z,23.78
2023-08-29T15:10:14.386Z,23.79
2023-08-29T15:12:59.787Z,23.79
2023-08-29T15:15:45.620Z,23.80
2023-08-29T15:18:31.052Z,23.80
2023-08-29T15:21:19.568Z,23.79
2023-08-29T15:24:06.111Z,23.80
2023-08-29T15:26:51.817Z,23.78
2023-08-29T15:29:37.225Z,23.78
2023-08-29T15:32:23.170Z,23.71
2023-08-29T15:35:09.380Z,23.71
2023-08-29T15:37:54.902Z,23.70
2023-08-29T15:40:44.742Z,23.69
2023-08-29T15:43:31.824Z,23.70
2023-08-29T15:46:17.295Z,23.69
2023-08-29T15:49:02.626Z,23.72
2023-08-29T15:51:48.021Z,23.74
2023-08-29T15:54:33.372Z,23.74
2023-08-29T15:57:19.260Z,23.73
2023-08-29T16:00:10.891Z,23.75
2023-08-29T16:02:56.403Z,23.76
2023-08-29T16:05:41.666Z,23.77
2023-08-29T16:08:27.001Z,23.74
2023-08-29T16:11:12.583Z,23.74
2023-08-29T16:13:58.320Z,23.76
2023-08-29T16:16:43.761Z,23.77
2023-08-29T16:19:29.156Z,23.79
2023-08-29T16:22:14.398Z,23.82
2023-08-29T16:24:59.750Z,23.79
2023-08-29T16:27:45.705Z,23.77
2023-08-29T16:30:31.641Z,23.75
2023-08-29T16:33:17.158Z,23.77
2023-08-29T16:36:04.350Z,23.79
2023-08-29T16:38:50.516Z,23.81
2023-08-29T16:41:37.159Z,23.82
2023-08-29T16:44:23.071Z,23.84
2023-08-29T16:47:08.926Z,23.83
2023-08-29T16:49:54.891Z,23.84
2023-08-29T16:52:41.272Z,23.84
2023-08-29T16:55:31.040Z,23.86
2023-08-29T16:58:17.915Z,23.83
2023-08-29T17:01:03.821Z,23.83
2023-08-29T17:03:52.721Z,23.83
2023-08-29T17:06:38.975Z,23.83
2023-08-29T17:09:25.045Z,23.81
2023-08-29T17:12:21.750Z,23.84
2023-08-29T17:15:08.794Z,23.82
2023-08-29T17:17:54.384Z,23.80
2023-08-29T17:20:40.163Z,23.80
2023-08-29T17:23:25.857Z,23.79
2023-08-29T17:26:11.868Z,23.77
2023-08-29T17:28:59.359Z,23.75
2023-08-29T17:31:46.071Z,23.73
2023-08-29T17:34:31.847Z,23.72
2023-08-29T17:37:18.326Z,23.71
2023-08-29T17:40:03.781Z,23.69
2023-08-29T17:42:49.217Z,23.64
2023-08-29T17:45:35.021Z,23.64
2023-08-29T17:48:20.453Z,23.58
2023-08-29T17:51:05.948Z,23.56
2023-08-29T17:53:51.814Z,23.53
2023-08-29T17:56:37.972Z,23.53
2023-08-29T17:59:23.746Z,23.49
2023-08-29T18:02:10.530Z,23.47
2023-08-29T18:04:56.355Z,23.45
2023-08-29T18:07:42.294Z,23.44
2023-08-29T18:10:28.268Z,23.39
2023-08-29T18:13:16.029Z,23.39
2023-08-29T18:16:08.794Z,23.37
2023-08-29T18:18:54.614Z,23.36
2023-08-29T18:21:39.595Z,23.33
2023-08-29T18:24:25.015Z,23.36
2023-08-29T18:27:10.431Z,23.36
2023-08-29T18:29:55.948Z,23.35
2023-08-29T18:32:41.258Z,23.36
2023-08-29T18:35:27.245Z,23.29
2023-08-29T18:38:13.056Z,23.20
2023-08-29T18:40:59.144Z,23.20
2023-08-29T18:43:44.649Z,23.21
2023-08-29T18:46:31.867Z,23.20
2023-08-29T18:49:17.449Z,23.13
2023-08-29T18:52:03.748Z,23.08
2023-08-29T18:54:49.193Z,23.03
2023-08-29T18:57:34.863Z,22.98
2023-08-29T19:00:21.069Z,22.97
2023-08-29T19:03:07.328Z,22.95
2023-08-29T19:05:55.382Z,22.95
2023-08-29T19:08:40.981Z,22.92
2023-08-29T19:11:28.423Z,22.91
2023-08-29T19:14:13.868Z,22.87
2023-08-29T19:16:59.562Z,22.84
2023-08-29T19:19:45.151Z,22.85
2023-08-29T19:22:30.821Z,22.83
2023-08-29T19:25:17.935Z,22.79
2023-08-29T19:28:03.672Z,22.77
2023-08-29T19:30:49.627Z,22.83
2023-08-29T19:33:35.373Z,22.83
2023-08-29T19:36:20.822Z,22.84
2023-08-29T19:39:16.906Z,22.87
2023-08-29T19:42:03.284Z,22.89
2023-08-29T19:44:49.456Z,22.89
2023-08-29T19:47:34.924Z,22.91
2023-08-29T19:50:20.358Z,22.93
2023-08-29T19:53:06.372Z,22.96
2023-08-29T19:55:56.052Z,22.96
2023-08-29T19:58:43.375Z,22.97
2023-08-29T20:01:28.821Z,22.98
2023-08-29T20:04:14.608Z,22.99
2023-08-29T20:07:00.016Z,23.02
2023-08-29T20:09:45.702Z,23.04
2023-08-29T20:12:31.275Z,23.07
2023-08-29T20:15:17.444Z,23.10
2023-08-29T20:18:02.961Z,23.08
2023-08-29T20:20:48.588Z,23.07
2023-08-29T20:23:37.735Z,23.08
2023-08-29T20:26:32.034Z,23.10
2023-08-29T20:29:18.163Z,23.10
2023-08-29T20:32:03.296Z,23.11
2023-08-29T20:34:48.532Z,23.12
2023-08-29T20:37:33.773Z,23.13
2023-08-29T20:40:19.046Z,23.14
2023-08-29T20:43:04.850Z,23.12
2023-08-29T20:45:50.316Z,23.16
2023-08-29T20:48:35.607Z,23.18
2023-08-29T20:51:21.002Z,23.19
2023-08-29T20:54:07.775Z,23.19
2023-08-29T20:56:53.277Z,23.21
2023-08-29T20:59:38.846Z,23.20
2023-08-29T21:02:24.288Z,23.23
2023-08-29T21:05:10.077Z,23.23
2023-08-29T21:07:55.540Z,23.26
2023-08-29T21:10:42.414Z,23.25
2023-08-29T21:13:28.157Z,23.22
2023-08-29T21:16:13.699Z,23.23
2023-08-29T21:18:59.277Z,23.23
2023-08-29T21:21:45.072Z,23.21
2023-08-29T21:24:30.221Z,23.19
2023-08-29T21:27:15.640Z,23.17
2023-08-29T21:30:00.903Z,23.13
2023-08-29T21:32:46.424Z,23.08
2023-08-29T21:35:31.821Z,23.07
2023-08-29T21:38:17.321Z,23.02
2023-08-29T21:41:04.265Z,22.97
2023-08-29T21:43:50.681Z,22.93
2023-08-29T21:46:35.707Z,22.92
2023-08-29T21:49:21.223Z,22.86
2023-08-29T21:52:06.728Z,22.83
2023-08-29T21:54:52.302Z,22.86
2023-08-29T21:57:37.615Z,22.85
2023-08-29T22:00:23.120Z,22.86
2023-08-29T22:03:08.541Z,22.84
2023-08-29T22:05:53.987Z,22.83
2023-08-29T22:08:40.439Z,22.81
2023-08-29T22:11:26.153Z,22.79
2023-08-29T22:14:11.678Z,22.80
2023-08-29T22:16:57.053Z,22.79
2023-08-29T22:19:42.385Z,22.75
2023-08-29T22:22:27.781Z,22.74
2023-08-29T22:25:13.315Z,22.72
2023-08-29T22:27:58.698Z,22.70
2023-08-29T22:30:44.018Z,22.69
2023-08-29T22:33:32.071Z,22.67
2023-08-29T22:36:18.083Z,22.66
2023-08-29T22:39:04.689Z,22.64
2023-08-29T22:41:50.328Z,22.63
2023-08-29T22:44:40.238Z,22.61
2023-08-29T22:47:25.600Z,22.59
2023-08-29T22:50:11.252Z,22.57
2023-08-29T22:52:56.783Z,22.55
2023-08-29T22:55:42.009Z,22.54
2023-08-29T22:58:27.479Z,22.53
2023-08-29T23:01:13.636Z,22.52
2023-08-29T23:03:59.311Z,22.51
2023-08-29T23:06:44.921Z,22.50
2023-08-29T23:09:32.269Z,22.49
2023-08-29T23:12:17.731Z,22.49
2023-08-29T23:15:03.467Z,22.46
2023-08-29T23:17:50.915Z,22.44
2023-08-29T23:20:36.459Z,22.42
2023-08-29T23:23:22.065Z,22.42
2023-08-29T23:26:07.212Z,22.43
2023-08-29T23:28:52.606Z,22.41
2023-08-29T23:31:38.187Z,22.39
2023-08-29T23:34:26.545Z,22.38
2023-08-29T23:37:11.954Z,22.39
2023-08-29T23:39:57.189Z,22.34
2023-08-29T23:42:42.554Z,22.34
2023-08-29T23:45:27.795Z,22.33
2023-08-29T23:48:13.139Z,22.34
2023-08-29T23:50:58.461Z,22.33
2023-08-29T23:53:43.794Z,22.32
2023-08-29T23:56:29.232Z,22.31
2023-08-29T23:59:14.478Z,22.29
